Time;durP1;ratioP1;P1;durP2;ratioP2;P2;SDS_P1;SDS_P2;PMS_P1;PMS_P2;Temp;Humidity;BMP_temperature;BMP_pressure;BME280_temperature;BME280_humidity;BME280_pressure;Samples;Min_cycle;Max_cycle;Signal;HPM_P1;HPM_P2
2022/12/03 00:01:44;;;;;;;21.00;11.00;;;;;;;-6.31;78.27;103832.63;4999668;28;20501;-69
2022/12/03 00:04:12;;;;;;;18.30;10.80;;;;;;;-6.46;78.95;103809.94;4993253;28;20076;-70
2022/12/03 00:06:38;;;;;;;13.57;10.32;;;;;;;-6.33;78.85;103831.75;4992791;28;20038;-72
2022/12/03 00:09:29;;;;;;;18.90;11.55;;;;;;;-6.41;79.08;103822.97;4993195;28;20041;-70
2022/12/03 00:11:54;;;;;;;21.33;10.47;;;;;;;-6.72;78.72;103765.50;4994221;28;20042;-70
2022/12/03 00:14:20;;;;;;;21.63;12.40;;;;;;;-6.38;79.18;103828.19;4993092;28;20478;-69
2022/12/03 00:16:46;;;;;;;26.27;11.83;;;;;;;-6.33;79.24;103829.16;4992456;28;20181;-68
2022/12/03 00:19:12;;;;;;;20.95;13.65;;;;;;;-6.31;79.43;103835.22;4975590;28;20441;-70
2022/12/03 00:21:37;;;;;;;25.70;14.23;;;;;;;-6.31;78.68;103827.44;5008590;28;20064;-69
2022/12/03 00:24:03;;;;;;;18.97;13.10;;;;;;;-6.35;79.09;103815.28;5015158;28;20157;-70
2022/12/03 00:26:28;;;;;;;21.57;11.60;;;;;;;-6.27;78.68;103824.03;5008336;28;20026;-71
2022/12/03 00:28:54;;;;;;;26.80;12.67;;;;;;;-6.33;79.12;103808.41;4994060;28;20033;-70
2022/12/03 00:31:22;;;;;;;21.03;10.53;;;;;;;-6.45;78.60;103784.88;4992894;28;20386;-70
2022/12/03 00:33:48;;;;;;;26.92;11.65;;;;;;;-6.35;79.07;103808.38;4974981;28;20036;-69
2022/12/03 00:36:14;;;;;;;18.77;11.48;;;;;;;-6.34;79.01;103804.06;4992919;28;20372;-70
2022/12/03 00:38:39;;;;;;;20.37;10.70;;;;;;;-6.32;79.46;103823.09;4994780;28;20109;-68
2022/12/03 00:41:05;;;;;;;18.30;11.47;;;;;;;-6.33;79.41;103821.38;4994873;28;20030;-70
2022/12/03 00:43:30;;;;;;;20.37;11.13;;;;;;;-6.27;79.47;103816.25;4992678;28;20031;-69
2022/12/03 00:45:56;;;;;;;17.27;11.13;;;;;;;-6.21;79.39;103821.50;4992498;28;20026;-71
2022/12/03 00:48:21;;;;;;;20.00;11.03;;;;;;;-6.16;79.30;103813.78;4992452;28;20114;-70
2022/12/03 00:50:47;;;;;;;21.93;9.80;;;;;;;-6.18;79.00;103815.47;4992708;28;20038;-70
2022/12/03 00:53:12;;;;;;;23.87;12.57;;;;;;;-6.20;79.06;103807.69;4992310;28;20018;-70
2022/12/03 00:55:38;;;;;;;19.17;12.17;;;;;;;-6.19;78.77;103811.16;4992202;28;20045;-71
2022/12/03 00:58:03;;;;;;;21.77;12.97;;;;;;;-6.22;78.94;103808.53;4992396;28;20030;-68
2022/12/03 01:00:29;;;;;;;17.03;10.67;;;;;;;-6.27;79.44;103806.75;4992329;28;20117;-70
2022/12/03 01:02:54;;;;;;;14.90;10.50;;;;;;;-6.29;78.99;103799.81;4991141;28;20462;-70
2022/12/03 01:05:20;;;;;;;19.80;12.90;;;;;;;-6.32;79.26;103790.25;4992140;28;20027;-70
2022/12/03 01:07:46;;;;;;;26.30;15.47;;;;;;;-6.43;78.82;103783.19;4992389;28;20046;-70
2022/12/03 01:10:14;;;;;;;16.80;11.25;;;;;;;-6.43;79.88;103803.91;4994885;28;20046;-70
2022/12/03 01:12:40;;;;;;;16.45;10.10;;;;;;;-6.53;79.54;103796.88;4997076;28;20081;-70
2022/12/03 01:15:07;;;;;;;21.67;10.57;;;;;;;-6.45;79.65;103810.81;4996024;28;20042;-71
2022/12/03 01:17:32;;;;;;;24.48;12.25;;;;;;;-6.51;80.19;103805.56;4996073;28;20030;-69
2022/12/03 01:19:58;;;;;;;29.37;13.50;;;;;;;-6.49;80.46;103804.72;4995770;28;20049;-70
2022/12/03 01:22:24;;;;;;;18.40;11.83;;;;;;;-6.48;80.23;103805.59;4995922;28;20425;-70
2022/12/03 01:24:51;;;;;;;21.77;12.43;;;;;;;-6.56;80.48;103793.41;4994607;28;20038;-69
2022/12/03 01:27:16;;;;;;;18.73;12.32;;;;;;;-6.66;80.78;103783.75;4996013;28;20034;-70
2022/12/03 01:29:42;;;;;;;23.43;11.13;;;;;;;-6.62;80.82;103785.56;4995837;28;20076;-70
2022/12/03 01:32:18;;;;;;;27.90;12.73;;;;;;;-6.58;81.08;103784.75;4995674;28;20038;-70
2022/12/03 01:34:49;;;;;;;18.20;12.07;;;;;;;-6.65;81.05;103775.13;4995614;28;20026;-69
2022/12/03 01:37:16;;;;;;;24.77;12.10;;;;;;;-6.67;81.15;103783.72;4995556;28;20058;-69
2022/12/03 01:39:42;;;;;;;25.17;13.13;;;;;;;-6.77;81.20;103767.19;4995518;28;20039;-71
2022/12/03 01:42:15;;;;;;;16.23;9.87;;;;;;;-6.86;81.50;103761.88;4995283;28;20088;-70
2022/12/03 01:44:41;;;;;;;19.38;11.52;;;;;;;-6.84;81.54;103780.91;4995272;28;20049;-70
2022/12/03 01:47:13;;;;;;;20.27;11.25;;;;;;;-6.87;82.35;103781.75;4995150;28;20026;-70
2022/12/03 01:49:52;;;;;;;16.33;10.73;;;;;;;-6.80;82.63;103785.28;4995156;28;20466;-70
2022/12/03 01:52:21;;;;;;;20.75;10.68;;;;;;;-6.83;82.43;103761.91;4995310;28;20034;-69
2022/12/03 01:54:50;;;;;;;20.90;10.93;;;;;;;-6.73;81.48;103763.78;4995253;28;20466;-69
2022/12/03 01:57:47;;;;;;;32.80;16.83;;;;;;;-6.73;82.00;103750.81;4994910;28;20034;-71
2022/12/03 02:00:18;;;;;;;31.05;17.17;;;;;;;-6.66;81.67;103755.22;4992958;28;20042;-70
2022/12/03 02:02:45;;;;;;;26.52;14.68;;;;;;;-6.64;81.67;103770.81;4995369;28;20524;-69
2022/12/03 02:05:18;;;;;;;23.58;14.85;;;;;;;-6.59;81.76;103772.63;4994762;28;20104;-69
2022/12/03 02:07:43;;;;;;;26.48;17.33;;;;;;;-6.58;81.76;103768.31;4994524;28;20050;-70
2022/12/03 02:10:12;;;;;;;24.07;12.53;;;;;;;-6.65;81.63;103763.88;4994587;28;20117;-72
2022/12/03 02:12:49;;;;;;;22.25;11.60;;;;;;;-6.66;81.38;103760.41;4994701;28;20042;-70
2022/12/03 02:15:15;;;;;;;18.15;11.18;;;;;;;-6.63;81.52;103750.09;4994893;28;20129;-69
2022/12/03 02:17:41;;;;;;;18.27;10.33;;;;;;;-6.58;81.09;103769.19;4994849;28;20165;-71
2022/12/03 02:20:09;;;;;;;18.15;11.20;;;;;;;-6.53;81.42;103778.75;4994340;28;20454;-69
2022/12/03 02:22:45;;;;;;;21.48;11.10;;;;;;;-6.57;81.15;103783.00;4994683;28;20113;-69
2022/12/03 02:25:23;;;;;;;16.02;10.93;;;;;;;-6.53;81.22;103786.50;4994600;28;20462;-71
2022/12/03 02:27:48;;;;;;;25.70;13.63;;;;;;;-6.54;81.51;103779.59;4994658;28;20034;-70
2022/12/03 02:30:19;;;;;;;24.63;12.87;;;;;;;-6.57;80.76;103785.59;4994678;28;20030;-70
2022/12/03 02:32:45;;;;;;;19.50;11.55;;;;;;;-6.71;80.65;103756.88;4994428;28;20030;-71
2022/12/03 02:35:22;;;;;;;20.52;12.07;;;;;;;-6.64;81.33;103769.09;4994400;28;20034;-70
2022/12/03 02:38:02;;;;;;;24.92;12.40;;;;;;;-6.55;81.30;103773.53;4994488;28;20117;-73
2022/12/03 02:40:33;;;;;;;18.63;10.15;;;;;;;-6.44;80.95;103778.84;4994327;28;20038;-70
2022/12/03 02:43:01;;;;;;;22.83;10.60;;;;;;;-6.43;80.62;103778.00;4994855;28;20034;-70
2022/12/03 02:45:33;;;;;;;16.75;10.27;;;;;;;-6.34;80.68;103779.00;4995661;28;20422;-69
2022/12/03 02:48:10;;;;;;;18.48;10.32;;;;;;;-6.39;79.93;103769.41;4995377;28;20066;-68
2022/12/03 02:50:40;;;;;;;16.30;11.85;;;;;;;-6.47;80.87;103763.25;4996866;28;20032;-69
2022/12/03 02:53:12;;;;;;;20.00;11.88;;;;;;;-6.52;80.48;103764.91;5000114;28;20061;-71
2022/12/03 02:55:39;;;;;;;19.17;11.00;;;;;;;-6.49;80.66;103764.97;4996278;28;20130;-69
2022/12/03 02:58:06;;;;;;;20.58;11.48;;;;;;;-6.46;81.15;103752.91;4996002;28;20090;-70
2022/12/03 03:00:34;;;;;;;17.08;11.25;;;;;;;-6.39;80.31;103769.41;4995644;28;20058;-68
2022/12/03 03:03:01;;;;;;;21.35;13.65;;;;;;;-6.36;80.94;103748.69;4996003;28;20041;-68
2022/12/03 03:05:27;;;;;;;19.83;11.45;;;;;;;-6.32;80.35;103748.78;4995483;28;20053;-69
2022/12/03 03:07:57;;;;;;;41.70;13.57;;;;;;;-6.44;80.80;103737.34;4995127;28;20073;-69
2022/12/03 03:10:48;;;;;;;17.73;11.35;;;;;;;-6.52;80.54;103742.47;4994656;28;20073;-68
2022/12/03 03:13:16;;;;;;;26.58;10.82;;;;;;;-6.51;80.63;103748.50;4994263;28;20052;-70
2022/12/03 03:15:43;;;;;;;12.65;8.65;;;;;;;-6.59;81.10;103731.16;4994982;28;20034;-72
2022/12/03 03:18:10;;;;;;;18.35;11.82;;;;;;;-6.62;81.05;103736.31;5004702;28;20030;-70
2022/12/03 03:20:37;;;;;;;15.98;10.02;;;;;;;-6.68;81.10;103736.19;4998749;28;20034;-71
2022/12/03 03:23:13;;;;;;;19.23;11.50;;;;;;;-6.59;81.47;103745.84;4997160;28;20073;-69
2022/12/03 03:25:42;;;;;;;23.60;11.60;;;;;;;-6.54;81.75;103753.66;4993410;28;20045;-70
2022/12/03 03:28:08;;;;;;;17.73;11.13;;;;;;;-6.57;81.37;103745.00;4993867;28;20026;-70
2022/12/03 03:30:36;;;;;;;21.35;11.48;;;;;;;-6.59;81.50;103756.19;4993700;28;20027;-71
2022/12/03 03:33:01;;;;;;;21.00;11.77;;;;;;;-6.69;81.32;103759.50;4993093;28;20031;-70
2022/12/03 03:35:27;;;;;;;22.97;11.10;;;;;;;-6.72;81.72;103759.47;4994054;28;20436;-69
2022/12/03 03:37:53;;;;;;;17.10;11.67;;;;;;;-6.76;81.86;103737.81;4993315;28;20037;-70
2022/12/03 03:40:20;;;;;;;23.02;10.68;;;;;;;-6.75;81.74;103747.34;4993845;28;20038;-69
2022/12/03 03:42:47;;;;;;;19.23;12.07;;;;;;;-6.76;82.21;103753.38;4993450;28;20042;-70
2022/12/03 03:45:14;;;;;;;23.63;12.07;;;;;;;-6.79;82.44;103742.97;4993511;28;20156;-69
2022/12/03 03:47:40;;;;;;;20.65;11.23;;;;;;;-6.81;82.76;103738.63;4992960;28;20100;-71
2022/12/03 03:50:09;;;;;;;23.05;11.73;;;;;;;-6.77;82.10;103742.97;4993139;28;20579;-70
2022/12/03 03:52:36;;;;;;;26.47;13.20;;;;;;;-6.75;82.74;103749.94;4992949;28;20453;-70
2022/12/03 03:55:02;;;;;;;18.58;10.05;;;;;;;-6.85;82.39;103732.53;4993021;28;20606;-70
2022/12/03 03:57:29;;;;;;;18.23;10.90;;;;;;;-6.76;82.07;103753.38;4993371;28;20441;-70
2022/12/03 03:59:54;;;;;;;20.77;11.43;;;;;;;-6.84;82.10;103749.81;4992995;28;20069;-69
2022/12/03 04:02:23;;;;;;;22.60;12.17;;;;;;;-7.01;82.54;103725.38;4992993;28;20496;-68
2022/12/03 04:04:50;;;;;;;19.25;10.75;;;;;;;-6.85;83.21;103742.03;4993057;28;20038;-69
2022/12/03 04:07:16;;;;;;;22.40;12.27;;;;;;;-6.82;83.22;103745.53;4992735;28;20054;-71
2022/12/03 04:09:43;;;;;;;21.50;11.50;;;;;;;-6.85;82.81;103732.53;4992497;28;20061;-70
2022/12/03 04:14:54;;;;;;;19.13;11.88;;;;;;;-6.75;83.08;103747.34;4992731;28;20018;-70
2022/12/03 04:17:20;;;;;;;17.73;10.90;;;;;;;-6.72;82.57;103741.31;4992462;28;20489;-70
2022/12/03 04:19:45;;;;;;;20.77;11.60;;;;;;;-6.82;82.57;103729.97;4992438;28;20037;-70
2022/12/03 04:28:47;;;;;;;18.95;9.57;;;;;;;-6.75;83.16;103736.09;4992484;28;20026;-70
2022/12/03 04:30:25;;;;;;;20.88;11.80;;;;;;;-6.87;82.54;103745.47;4992498;28;20374;-69
2022/12/03 04:35:44;;;;;;;22.45;11.73;;;;;;;-7.11;83.27;103737.34;4992679;28;20026;-70
2022/12/03 04:38:11;;;;;;;19.58;11.63;;;;;;;-7.10;83.68;103741.66;4992705;28;20034;-71
2022/12/03 04:43:22;;;;;;;20.30;11.40;;;;;;;-7.24;83.64;103731.06;4992807;28;20042;-70
2022/12/03 04:45:47;;;;;;;22.97;12.47;;;;;;;-7.13;83.89;103748.53;4996208;28;20428;-71
2022/12/03 04:48:13;;;;;;;18.50;11.47;;;;;;;-7.16;83.99;103745.88;4996306;28;20030;-70
2022/12/03 04:50:38;;;;;;;19.63;12.00;;;;;;;-7.19;84.72;103739.81;4978983;28;20037;-69
2022/12/03 04:53:04;;;;;;;20.40;11.03;;;;;;;-7.24;84.22;103740.56;4996223;28;20019;-69
2022/12/03 04:55:30;;;;;;;20.27;10.93;;;;;;;-7.30;84.90;103741.34;4996241;28;20485;-70
2022/12/03 04:57:55;;;;;;;21.50;12.23;;;;;;;-7.34;85.25;103734.38;4996484;28;20033;-69
2022/12/03 05:00:21;;;;;;;24.97;12.43;;;;;;;-7.28;85.44;103734.47;4996536;28;20026;-71
2022/12/03 05:02:47;;;;;;;22.83;11.30;;;;;;;-7.26;85.51;103734.50;4996330;28;20030;-70
2022/12/03 05:05:12;;;;;;;20.67;13.10;;;;;;;-7.18;85.69;103738.97;4996152;28;20030;-69
2022/12/03 05:07:39;;;;;;;29.30;12.50;;;;;;;-7.21;85.03;103715.63;4995640;28;20455;-69
2022/12/03 05:10:05;;;;;;;19.30;11.27;;;;;;;-7.02;84.67;103746.94;4995997;28;20030;-70
2022/12/03 05:12:31;;;;;;;17.35;11.10;;;;;;;-7.03;85.08;103742.63;4996038;28;20030;-70
2022/12/03 05:14:57;;;;;;;18.30;11.77;;;;;;;-7.05;84.36;103744.31;4996044;28;20026;-69
2022/12/03 05:17:22;;;;;;;17.57;10.67;;;;;;;-7.09;84.70;103737.34;4995715;28;20026;-70
2022/12/03 05:22:32;;;;;;;20.55;12.60;;;;;;;-7.03;85.29;103737.44;4994892;28;20276;-70
2022/12/03 05:24:57;;;;;;;17.23;10.87;;;;;;;-6.99;84.91;103742.69;4994823;28;20049;-69
2022/12/03 05:27:23;;;;;;;18.47;11.00;;;;;;;-7.19;84.74;103706.16;4994398;28;20032;-69
2022/12/03 05:29:48;;;;;;;23.30;11.77;;;;;;;-7.01;84.46;103740.91;4995560;28;20545;-69
2022/12/03 05:32:14;;;;;;;21.47;13.23;;;;;;;-7.10;84.68;103733.88;4995374;28;20035;-70
2022/12/03 05:34:39;;;;;;;23.30;13.07;;;;;;;-7.20;85.03;103735.47;4994984;28;20466;-72
2022/12/03 05:37:05;;;;;;;20.70;13.30;;;;;;;-7.24;85.02;103730.22;4995288;28;20073;-71
2022/12/03 05:39:31;;;;;;;20.37;11.77;;;;;;;-7.21;85.81;103738.91;4976576;28;20030;-73
2022/12/03 05:44:40;;;;;;;19.55;10.82;;;;;;;-7.15;85.36;103729.50;4993176;28;20031;-71
2022/12/03 05:47:06;;;;;;;17.50;11.83;;;;;;;-7.16;85.46;103736.41;4995281;28;20504;-70
2022/12/03 05:49:32;;;;;;;19.60;11.73;;;;;;;-7.10;85.57;103741.66;4989282;28;20027;-69
2022/12/03 05:51:57;;;;;;;27.03;12.47;;;;;;;-7.06;85.84;103737.38;4990864;28;20386;-70
2022/12/03 05:54:23;;;;;;;21.87;13.03;;;;;;;-7.08;85.78;103724.41;4994800;28;20030;-68
2022/12/03 05:56:48;;;;;;;17.97;12.03;;;;;;;-7.02;85.06;103736.59;4982521;28;20043;-67
2022/12/03 05:59:14;;;;;;;20.63;13.30;;;;;;;-7.00;85.66;103738.34;4975956;28;20031;-69
2022/12/03 06:01:39;;;;;;;23.83;14.00;;;;;;;-7.00;85.25;103734.88;4960120;28;20027;-67
2022/12/03 06:04:05;;;;;;;21.17;12.27;;;;;;;-7.07;85.30;103720.97;4976999;28;20081;-72
2022/12/03 06:06:32;;;;;;;17.43;11.83;;;;;;;-6.94;85.59;103734.97;4976939;28;20031;-69
2022/12/03 06:08:57;;;;;;;21.55;12.95;;;;;;;-6.89;85.20;103730.75;4975789;28;20490;-70
2022/12/03 06:11:23;;;;;;;24.13;12.93;;;;;;;-6.94;85.04;103711.66;4975297;28;20058;-68
2022/12/03 06:13:48;;;;;;;20.87;11.97;;;;;;;-6.93;84.91;103722.06;4974824;28;20034;-68
2022/12/03 06:16:14;;;;;;;20.23;12.10;;;;;;;-6.97;85.41;103725.44;4974431;28;20049;-70
2022/12/03 06:18:39;;;;;;;20.77;12.03;;;;;;;-7.02;85.31;103713.28;4975263;28;20027;-68
2022/12/03 06:21:05;;;;;;;20.20;12.67;;;;;;;-6.88;85.50;103737.66;4975214;28;20034;-69
2022/12/03 06:23:31;;;;;;;17.73;11.37;;;;;;;-6.86;85.33;103720.41;4975592;28;20054;-69
2022/12/03 06:25:56;;;;;;;20.33;11.80;;;;;;;-6.72;85.24;103726.63;4975515;28;20081;-69
2022/12/03 06:28:22;;;;;;;22.53;11.97;;;;;;;-6.65;84.19;103731.06;4975733;28;20050;-68
2022/12/03 06:30:47;;;;;;;22.17;13.87;;;;;;;-6.64;83.90;103731.94;4975628;28;20037;-70
2022/12/03 06:33:13;;;;;;;23.13;13.07;;;;;;;-6.67;84.29;103730.16;4976096;28;20038;-68
2022/12/03 06:35:38;;;;;;;20.93;13.07;;;;;;;-6.69;84.33;103726.69;4974827;28;20118;-68
2022/12/03 06:38:04;;;;;;;18.77;12.30;;;;;;;-6.77;84.82;103724.84;4975852;28;20081;-71
2022/12/03 06:40:29;;;;;;;20.23;12.83;;;;;;;-6.79;84.85;103730.00;4974596;28;20435;-69
2022/12/03 06:42:55;;;;;;;21.53;13.40;;;;;;;-6.77;84.98;103725.72;4957523;28;20117;-68
2022/12/03 06:45:46;;;;;;;16.90;11.75;;;;;;;-6.72;84.57;103713.69;4975093;28;20061;-69
2022/12/03 06:48:12;;;;;;;25.23;14.03;;;;;;;-6.65;85.01;103723.31;4974967;28;20046;-69
2022/12/03 06:50:37;;;;;;;23.10;12.47;;;;;;;-6.60;85.00;103719.03;4974984;28;20023;-70
2022/12/03 06:53:03;;;;;;;21.50;13.07;;;;;;;-6.56;84.41;103723.41;4974795;28;20515;-69
2022/12/03 06:55:28;;;;;;;23.87;13.87;;;;;;;-6.48;84.32;103725.22;4974786;28;20030;-69
2022/12/03 06:57:54;;;;;;;19.70;12.73;;;;;;;-6.57;84.27;103713.88;4974302;28;20031;-69
2022/12/03 07:00:20;;;;;;;22.53;14.87;;;;;;;-6.57;84.60;103715.59;4973964;28;20042;-70
2022/12/03 07:02:45;;;;;;;22.33;13.02;;;;;;;-6.57;84.96;103719.06;4974744;28;20110;-69
2022/12/03 07:05:11;;;;;;;27.20;14.37;;;;;;;-6.53;84.21;103719.97;4984488;28;20046;-70
2022/12/03 07:07:36;;;;;;;24.03;13.20;;;;;;;-6.60;84.26;103715.56;4977604;28;20050;-69
2022/12/03 07:10:03;;;;;;;26.70;13.87;;;;;;;-6.54;85.16;103718.25;4973119;28;20034;-69
2022/12/03 07:12:29;;;;;;;29.15;14.68;;;;;;;-6.56;85.07;103715.63;4974042;28;20034;-68
2022/12/03 07:14:54;;;;;;;26.17;14.17;;;;;;;-6.49;85.26;103731.25;4976413;28;20482;-70
2022/12/03 07:17:20;;;;;;;24.70;14.30;;;;;;;-6.41;85.65;103721.84;4976993;28;20105;-67
2022/12/03 07:19:45;;;;;;;30.77;15.03;;;;;;;-6.36;84.81;103713.28;4977807;28;20034;-70
2022/12/03 07:22:11;;;;;;;27.83;15.57;;;;;;;-6.27;84.24;103722.88;4974781;28;20502;-70
2022/12/03 07:24:36;;;;;;;22.97;13.90;;;;;;;-6.24;83.99;103720.31;4956891;28;20031;-70
2022/12/03 07:27:02;;;;;;;32.07;15.27;;;;;;;-6.21;83.99;103728.13;4974339;28;20027;-70
2022/12/03 07:29:27;;;;;;;22.27;14.03;;;;;;;-6.16;84.19;103730.78;4980066;28;20090;-70
2022/12/03 07:31:53;;;;;;;27.60;14.30;;;;;;;-6.05;84.88;103730.03;4983275;28;20490;-68
2022/12/03 07:34:19;;;;;;;29.43;16.87;;;;;;;-5.90;84.18;103731.03;4959350;28;20038;-70
2022/12/03 07:36:44;;;;;;;27.83;15.93;;;;;;;-5.82;83.09;103725.03;4974248;28;20109;-69
2022/12/03 07:39:10;;;;;;;22.40;13.70;;;;;;;-5.81;84.16;103712.91;4973993;28;20029;-69
2022/12/03 07:41:35;;;;;;;23.63;14.53;;;;;;;-5.68;83.20;103722.56;4973481;28;20077;-70
2022/12/03 07:44:01;;;;;;;29.30;16.00;;;;;;;-5.72;83.43;103713.03;4973485;28;20113;-68
2022/12/03 07:46:29;;;;;;;27.00;16.73;;;;;;;-5.62;82.68;103731.28;4973557;28;20042;-70
2022/12/03 07:48:54;;;;;;;31.70;18.43;;;;;;;-5.74;82.22;103713.00;4973229;28;20074;-69
2022/12/03 07:51:20;;;;;;;30.87;15.30;;;;;;;-5.82;82.72;103708.59;4973418;28;20529;-69
2022/12/03 07:53:45;;;;;;;31.67;16.17;;;;;;;-5.82;83.51;103716.38;4973496;28;20031;-70
2022/12/03 07:56:11;;;;;;;29.53;15.10;;;;;;;-5.75;83.34;103713.88;4973370;28;20031;-70
2022/12/03 07:58:36;;;;;;;25.33;15.43;;;;;;;-5.62;83.12;103720.03;4973267;28;20023;-70
2022/12/03 08:01:02;;;;;;;26.00;15.73;;;;;;;-5.52;82.71;103723.56;4973289;28;20126;-70
2022/12/03 08:03:27;;;;;;;35.53;16.00;;;;;;;-5.41;82.67;103715.00;4973760;28;20069;-70
2022/12/03 08:05:53;;;;;;;29.53;17.07;;;;;;;-5.38;82.16;103709.84;4956270;28;20370;-70
2022/12/03 08:08:19;;;;;;;29.47;16.47;;;;;;;-5.40;82.87;103726.28;4973198;28;20061;-70
2022/12/03 08:10:45;;;;;;;31.02;16.17;;;;;;;-5.36;82.60;103723.69;4973106;28;20387;-70
2022/12/03 08:13:14;;;;;;;29.00;16.10;;;;;;;-5.35;82.34;103709.84;4973173;28;20026;-72
2022/12/03 08:15:39;;;;;;;;;;;;;;;-5.19;82.22;103721.25;4974460;28;20019;-69
2022/12/03 08:18:17;;;;;;;28.20;15.33;;;;;;;-5.09;82.11;103704.84;4973046;28;19910;-69
2022/12/03 08:20:45;;;;;;;30.17;15.25;;;;;;;-5.01;81.73;103710.06;4973165;28;20352;-69
2022/12/03 08:23:19;;;;;;;23.75;14.52;;;;;;;-4.96;81.37;103710.97;4973047;28;20030;-69
2022/12/03 08:25:46;;;;;;;28.70;14.98;;;;;;;-5.06;80.67;103716.97;4973118;28;20062;-69
2022/12/03 08:28:13;;;;;;;25.92;15.02;;;;;;;-5.08;81.35;103713.50;4973046;28;20062;-69
2022/12/03 08:30:40;;;;;;;29.33;15.05;;;;;;;-5.14;81.70;103713.47;4973221;28;20034;-68
2022/12/03 08:33:17;;;;;;;28.92;16.33;;;;;;;-5.17;82.04;103719.50;4955700;28;20433;-68
2022/12/03 08:35:48;;;;;;;41.78;20.23;;;;;;;-5.27;81.58;103694.31;4972809;28;20467;-70
2022/12/03 08:38:14;;;;;;;28.35;16.27;;;;;;;-5.13;81.16;103720.41;4973047;28;20555;-69
2022/12/03 08:40:42;;;;;;;23.53;14.70;;;;;;;-5.11;81.97;103718.69;4972957;28;20031;-70
2022/12/03 08:43:23;;;;;;;27.13;15.80;;;;;;;-5.12;81.95;103719.53;4973087;28;20298;-70
2022/12/03 08:45:54;;;;;;;40.65;16.77;;;;;;;-5.20;81.83;103716.91;4972910;28;20388;-70
2022/12/03 08:48:35;;;;;;;26.42;15.65;;;;;;;-5.25;82.35;103707.31;4973021;28;20105;-69
2022/12/03 08:51:17;;;;;;;29.70;16.17;;;;;;;-5.15;82.08;103716.94;4973391;28;20031;-71
2022/12/03 08:53:51;;;;;;;23.40;14.50;;;;;;;-5.19;81.58;103700.44;4973074;28;20467;-70
2022/12/03 08:56:28;;;;;;;32.20;15.98;;;;;;;-5.28;81.77;103696.91;4972814;28;20065;-69
2022/12/03 08:58:58;;;;;;;38.22;17.75;;;;;;;-5.21;81.79;103715.13;4972893;28;20034;-70
2022/12/03 09:01:40;;;;;;;27.58;15.00;;;;;;;-5.34;82.34;103721.13;4972902;28;20208;-69
2022/12/03 09:04:36;;;;;;;24.60;14.48;;;;;;;-5.43;82.78;103716.72;4973130;28;20026;-68
2022/12/03 09:07:03;;;;;;;27.10;14.80;;;;;;;-5.57;83.57;103715.72;4972640;28;20130;-68
2022/12/03 09:09:30;;;;;;;26.13;14.82;;;;;;;-5.63;83.47;103716.56;4972832;28;20395;-69
2022/12/03 09:11:55;;;;;;;25.50;14.97;;;;;;;-5.65;84.22;103715.69;4955677;28;20031;-68
2022/12/03 09:14:22;;;;;;;28.00;14.00;;;;;;;-5.63;83.97;103713.97;4973027;28;20058;-68
2022/12/03 09:16:54;;;;;;;25.48;13.80;;;;;;;-5.65;84.02;103709.63;4972748;28;20019;-69
2022/12/03 09:19:24;;;;;;;21.23;12.77;;;;;;;-5.58;84.24;103716.59;4973047;28;20050;-69
2022/12/03 09:21:50;;;;;;;39.78;15.27;;;;;;;-5.58;83.86;103716.59;4972892;28;20463;-68
2022/12/03 09:24:15;;;;;;;27.13;13.93;;;;;;;-5.55;84.25;103710.56;4972811;28;20031;-70
2022/12/03 09:26:41;;;;;;;30.17;14.50;;;;;;;-5.51;84.11;103710.56;4973180;28;20658;-70
2022/12/03 09:29:06;;;;;;;30.53;14.87;;;;;;;-5.48;83.81;103702.84;4972736;28;20027;-70
2022/12/03 09:31:33;;;;;;;27.60;13.87;;;;;;;-5.39;84.07;103717.63;4975804;28;20118;-70
2022/12/03 09:34:02;;;;;;;25.95;13.40;;;;;;;-5.31;83.88;103714.22;4976143;28;20050;-69
2022/12/03 09:36:28;;;;;;;28.70;14.90;;;;;;;-5.28;83.42;103713.34;4976178;28;20041;-70
2022/12/03 09:38:54;;;;;;;26.43;13.07;;;;;;;-5.65;83.55;103642.97;4976127;28;20027;-69
2022/12/03 09:41:20;;;;;;;35.37;16.53;;;;;;;-5.35;84.00;103709.84;4976174;28;20030;-70
2022/12/03 09:43:46;;;;;;;31.10;14.60;;;;;;;-5.40;84.52;103715.88;4976861;28;20027;-68
2022/12/03 09:46:11;;;;;;;28.63;14.57;;;;;;;-5.46;84.11;103706.31;4977184;28;20030;-70
2022/12/03 09:48:39;;;;;;;32.83;14.55;;;;;;;-5.52;85.54;103711.44;4975873;28;20039;-69
2022/12/03 09:51:04;;;;;;;36.33;14.38;;;;;;;-5.61;85.38;103706.19;4975683;28;20487;-69
2022/12/03 09:53:31;;;;;;;29.53;16.37;;;;;;;-5.64;85.25;103700.97;4975840;28;20043;-70
2022/12/03 09:55:58;;;;;;;31.20;17.23;;;;;;;-5.62;85.72;103704.44;4975811;28;20441;-69
2022/12/03 09:58:26;;;;;;;24.35;13.88;;;;;;;-5.57;85.66;103718.31;4975452;28;20037;-69
2022/12/03 10:00:51;;;;;;;19.10;12.90;;;;;;;-5.55;85.83;103716.59;4975578;28;20034;-69
2022/12/03 10:03:20;;;;;;;22.83;13.17;;;;;;;-5.56;85.67;103711.41;4975089;28;20034;-69
2022/12/03 10:05:46;;;;;;;28.67;13.70;;;;;;;-5.61;85.59;103706.19;4976073;28;20026;-69
2022/12/03 10:08:19;;;;;;;26.97;14.07;;;;;;;-5.56;86.11;103714.88;4975994;28;20045;-70
2022/12/03 10:10:46;;;;;;;22.13;13.93;;;;;;;-5.64;85.66;103704.44;4976067;28;20049;-73
2022/12/03 10:13:20;;;;;;;21.50;12.20;;;;;;;-5.59;86.39;103709.66;4976475;28;20035;-73
2022/12/03 10:15:47;;;;;;;29.00;16.08;;;;;;;-5.57;86.58;103701.88;4975981;28;20090;-69
2022/12/03 10:18:25;;;;;;;24.10;13.43;;;;;;;-5.49;86.18;103703.69;4975038;28;20038;-70
2022/12/03 10:20:52;;;;;;;25.10;12.82;;;;;;;-5.48;86.02;103702.84;4975911;28;20031;-72
2022/12/03 10:23:25;;;;;;;26.98;14.50;;;;;;;-5.42;85.92;103702.00;4975366;28;20038;-74
2022/12/03 10:25:57;;;;;;;21.58;14.13;;;;;;;-5.45;86.22;103702.88;4975284;28;20078;-77
2022/12/03 10:28:30;;;;;;;26.58;13.55;;;;;;;-5.48;86.61;103691.59;4975153;28;20546;-74
2022/12/03 10:30:57;;;;;;;31.65;15.27;;;;;;;-5.44;86.37;103689.03;4973794;28;20073;-73
2022/12/03 10:33:29;;;;;;;29.88;16.20;;;;;;;-5.48;86.42;103686.41;4974941;28;20426;-73
2022/12/03 10:35:54;;;;;;;33.92;16.38;;;;;;;-5.40;86.23;103684.72;4959370;28;20035;-73
2022/12/03 10:38:32;;;;;;;28.63;15.63;;;;;;;-5.42;86.51;103678.63;4978431;28;20300;-77
2022/12/03 10:40:58;;;;;;;26.02;15.13;;;;;;;-5.31;86.10;103690.81;4958864;28;20046;-71
2022/12/03 10:43:24;;;;;;;27.73;16.87;;;;;;;-5.42;86.71;103676.91;4975872;28;20030;-69
2022/12/03 10:46:09;;;;;;;24.77;15.87;;;;;;;-5.31;86.57;103689.97;4977349;28;20023;-69
2022/12/03 10:48:34;;;;;;;37.58;17.15;;;;;;;-5.30;86.80;103682.16;4977980;28;20030;-71
2022/12/03 10:51:20;;;;;;;27.98;14.25;;;;;;;-5.36;86.78;103679.53;4975200;28;20089;-72
2022/12/03 10:53:55;;;;;;;32.92;16.20;;;;;;;-5.33;86.72;103681.28;4974822;28;20121;-77
2022/12/03 10:56:25;;;;;;;29.90;16.05;;;;;;;-5.37;86.94;103680.41;4974714;28;20533;-73
2022/12/03 10:58:57;;;;;;;30.92;15.50;;;;;;;-5.34;87.44;103688.22;4958041;28;20026;-78
2022/12/03 11:01:24;;;;;;;32.17;15.40;;;;;;;-5.34;86.75;103685.63;4973884;28;20113;-72
2022/12/03 11:03:59;;;;;;;26.73;14.45;;;;;;;-5.32;87.23;103686.50;4974833;28;20027;-69
2022/12/03 11:06:25;;;;;;;27.02;14.18;;;;;;;-5.28;86.83;103683.91;4975056;28;20019;-73
2022/12/03 11:08:55;;;;;;;26.53;13.40;;;;;;;-5.28;86.63;103676.97;4953983;29;20053;-72
2022/12/03 11:11:29;;;;;;;28.48;13.35;;;;;;;-5.15;87.24;103686.63;4956031;28;20118;-72
2022/12/03 11:13:58;;;;;;;25.25;14.00;;;;;;;-5.08;86.86;103693.56;4956366;28;20031;-76
2022/12/03 11:16:39;;;;;;;24.00;15.23;;;;;;;-5.00;87.21;103685.81;4955798;28;20122;-75
2022/12/03 11:19:14;;;;;;;30.25;15.65;;;;;;;-4.97;86.32;103685.81;4955885;28;20031;-70
2022/12/03 11:22:05;;;;;;;25.83;15.23;;;;;;;-4.94;86.57;103683.25;4955765;28;20427;-72
2022/12/03 11:24:33;;;;;;;21.38;14.13;;;;;;;-5.10;86.85;103652.84;4956541;28;20035;-73
2022/12/03 11:26:59;;;;;;;23.77;13.82;;;;;;;-4.85;86.20;103677.25;4955022;28;20776;-76
2022/12/03 11:29:58;;;;;;;26.90;15.30;;;;;;;-4.76;86.03;103683.34;4954899;28;20038;-74
2022/12/03 11:32:41;;;;;;;28.13;16.08;;;;;;;-4.75;86.32;103669.47;4933558;28;20286;-72
2022/12/03 11:35:13;;;;;;;29.23;16.35;;;;;;;-4.87;86.00;103655.56;4955225;28;20038;-76